Main page
METAR-TAF:

METAR-TAF

Airports :

Cherbourg – Maupertus Airport

Cherbourg, France

latitude: 49-39N, longitude: 001-28W, elevation: 138 m

Current weather observation

The report was made 42 minutes ago, at 06:30 UTC
Wind 11 kt from the Northwest, varying between West and North
Temperature 7°C
Humidity 76%
Pressure 1023 hPa
Visibility 10 km or more
Broken clouds at a height of 2900 ft
Broken clouds at a height of 3800 ft

METAR: LFRC 170630Z AUTO 32011KT 280V350 9999 BKN029 BKN038 07/03 Q1023 TEMPO 31015G25KT

Time: 08:12 (07:12 UTC)

Forecast

The report was made 2 hours and 12 minutes ago, at 05:00 UTC
Forecast valid from 17 at 06 UTC to 17 at 15 UTC
Wind 12 kt from the Northwest
Visibility 10 km or more
Broken clouds at a height of 2500 ft
Temporary
from 17 at 06 UTC to 17 at 08 UTC
Wind 15 kt from the Northwest with gusts up to 25 kt

TAF: LFRC 170500Z 1706/1715 31012KT 9999 BKN025 TEMPO 1706/1708 31015G25KT

Weather observations and forecasts of more than 4000 airports (METAR and TAF reports).

The available stations are represented by yellow and red dots on the map.

Hover mouse over dot to see the name of the station.

Then click to see weather observations and forecasts.

To change the map : click on the green buttons with a black cross to zoom in, on the green button with a dash to zoom out, or on the green arrows for adjacent maps.


METAR-TAF: